Wetterdaten: Montag, 30.04.2007
Datum Zeit Temp. A. Feuchte A. Luftdruck Regen Wind Richtung Richtung Sonnenschein UV Solar Windben
30.04.2007 00:00 9,7 C 48 % 1018,6 hPa 0,0 mm 0,0 km/h (0 Bft) O 90 0 min 0 UV-I 0 W/m 4,8 km/h (1 Bft)
30.04.2007 00:10 9,6 C 48 % 1018,5 hPa 0,0 mm 0,0 km/h (0 Bft) O 90 0 min 0 UV-I 0 W/m 3,2 km/h (1 Bft)
30.04.2007 00:20 9,4 C 49 % 1018,5 hPa 0,0 mm 0,0 km/h (0 Bft) O 90 0 min 0 UV-I 0 W/m 1,6 km/h (1 Bft)
30.04.2007 00:30 9,3 C 49 % 1018,4 hPa 0,0 mm 0,0 km/h (0 Bft) O 90 0 min 0 UV-I 0 W/m 3,2 km/h (1 Bft)
30.04.2007 00:40 9,1 C 50 % 1018,3 hPa 0,0 mm 0,0 km/h (0 Bft) O 90 0 min 0 UV-I 0 W/m 3,2 km/h (1 Bft)
30.04.2007 00:50 8,8 C 51 % 1018,3 hPa 0,0 mm 0,0 km/h (0 Bft) O-NO 67 0 min 0 UV-I 0 W/m 4,8 km/h (1 Bft)
30.04.2007 01:00 8,7 C 51 % 1018,4 hPa 0,0 mm 0,0 km/h (0 Bft) O 90 0 min 0 UV-I 0 W/m 3,2 km/h (1 Bft)
30.04.2007 01:10 8,6 C 52 % 1018,4 hPa 0,0 mm 0,0 km/h (0 Bft) O 90 0 min 0 UV-I 0 W/m 4,8 km/h (1 Bft)
30.04.2007 01:20 8,5 C 52 % 1018,5 hPa 0,0 mm 1,6 km/h (1 Bft) O-SO 112 0 min 0 UV-I 0 W/m 6,4 km/h (2 Bft)
30.04.2007 01:30 8,5 C 52 % 1018,4 hPa 0,0 mm 1,6 km/h (1 Bft) O-NO 67 0 min 0 UV-I 0 W/m 4,8 km/h (1 Bft)
30.04.2007 01:40 8,4 C 52 % 1018,4 hPa 0,0 mm 0,0 km/h (0 Bft) O 90 0 min 0 UV-I 0 W/m 3,2 km/h (1 Bft)
30.04.2007 01:50 8,2 C 53 % 1018,5 hPa 0,0 mm 0,0 km/h (0 Bft) O 90 0 min 0 UV-I 0 W/m 3,2 km/h (1 Bft)
30.04.2007 02:00 8,1 C 54 % 1018,5 hPa 0,0 mm 0,0 km/h (0 Bft) O 90 0 min 0 UV-I 0 W/m 3,2 km/h (1 Bft)
30.04.2007 02:10 8,0 C 53 % 1018,4 hPa 0,0 mm 1,6 km/h (1 Bft) O-NO 67 0 min 0 UV-I 0 W/m 4,8 km/h (1 Bft)
30.04.2007 02:20 7,9 C 53 % 1018,3 hPa 0,0 mm 0,0 km/h (0 Bft) O 90 0 min 0 UV-I 0 W/m 4,8 km/h (1 Bft)
30.04.2007 02:30 7,7 C 54 % 1018,3 hPa 0,0 mm 0,0 km/h (0 Bft) O 90 0 min 0 UV-I 0 W/m 3,2 km/h (1 Bft)
30.04.2007 02:40 7,6 C 54 % 1018,2 hPa 0,0 mm 0,0 km/h (0 Bft) O-SO 112 0 min 0 UV-I 0 W/m 3,2 km/h (1 Bft)
30.04.2007 02:50 7,4 C 55 % 1018,4 hPa 0,0 mm 1,6 km/h (1 Bft) O 90 0 min 0 UV-I 0 W/m 4,8 km/h (1 Bft)
30.04.2007 03:00 7,3 C 55 % 1018,4 hPa 0,0 mm 1,6 km/h (1 Bft) O-NO 67 0 min 0 UV-I 0 W/m 4,8 km/h (1 Bft)
30.04.2007 03:10 7,3 C 55 % 1018,4 hPa 0,0 mm 1,6 km/h (1 Bft) O-NO 67 0 min 0 UV-I 0 W/m 4,8 km/h (1 Bft)
30.04.2007 03:20 7,2 C 55 % 1018,4 hPa 0,0 mm 1,6 km/h (1 Bft) NO 45 0 min 0 UV-I 0 W/m 6,4 km/h (2 Bft)
30.04.2007 03:30 7,1 C 56 % 1018,2 hPa 0,0 mm 1,6 km/h (1 Bft) O 90 0 min 0 UV-I 0 W/m 3,2 km/h (1 Bft)
30.04.2007 03:40 6,9 C 56 % 1018,2 hPa 0,0 mm 1,6 km/h (1 Bft) O 90 0 min 0 UV-I 0 W/m 3,2 km/h (1 Bft)
30.04.2007 03:50 6,9 C 56 % 1018,2 hPa 0,0 mm 1,6 km/h (1 Bft) O 90 0 min 0 UV-I 0 W/m 6,4 km/h (2 Bft)
30.04.2007 04:00 6,9 C 56 % 1018,1 hPa 0,0 mm 1,6 km/h (1 Bft) O 90 0 min 0 UV-I 0 W/m 8,0 km/h (2 Bft)
30.04.2007 04:10 6,8 C 56 % 1018,2 hPa 0,0 mm 1,6 km/h (1 Bft) O 90 0 min 0 UV-I 0 W/m 4,8 km/h (1 Bft)
30.04.2007 04:20 6,7 C 57 % 1018,3 hPa 0,0 mm 1,6 km/h (1 Bft) O-NO 67 0 min 0 UV-I 0 W/m 4,8 km/h (1 Bft)
30.04.2007 04:30 6,6 C 57 % 1018,3 hPa 0,0 mm 0,0 km/h (0 Bft) O-NO 67 0 min 0 UV-I 0 W/m 3,2 km/h (1 Bft)
30.04.2007 04:40 6,4 C 58 % 1018,3 hPa 0,0 mm 0,0 km/h (0 Bft) O 90 0 min 0 UV-I 0 W/m 3,2 km/h (1 Bft)
30.04.2007 04:50 6,3 C 58 % 1018,3 hPa 0,0 mm 0,0 km/h (0 Bft) O 90 0 min 0 UV-I 0 W/m 3,2 km/h (1 Bft)
30.04.2007 05:00 6,2 C 59 % 1018,3 hPa 0,0 mm 0,0 km/h (0 Bft) O 90 0 min 0 UV-I 0 W/m 1,6 km/h (1 Bft)
30.04.2007 05:10 5,9 C 60 % 1018,2 hPa 0,0 mm 0,0 km/h (0 Bft) O 90 0 min 0 UV-I 0 W/m 1,6 km/h (1 Bft)
30.04.2007 05:20 5,7 C 61 % 1018,2 hPa 0,0 mm 0,0 km/h (0 Bft) N 0 0 min 0 UV-I 0 W/m 0,0 km/h (0 Bft)
30.04.2007 05:30 5,4 C 62 % 1018,3 hPa 0,0 mm 0,0 km/h (0 Bft) O 90 0 min 0 UV-I 0 W/m 1,6 km/h (1 Bft)
30.04.2007 05:40 5,3 C 62 % 1018,3 hPa 0,0 mm 0,0 km/h (0 Bft) O 90 0 min 0 UV-I 0 W/m 1,6 km/h (1 Bft)
30.04.2007 05:50 5,3 C 61 % 1018,3 hPa 0,0 mm 0,0 km/h (0 Bft) O-NO 67 0 min 0 UV-I 0 W/m 3,2 km/h (1 Bft)
30.04.2007 06:00 5,2 C 62 % 1018,4 hPa 0,0 mm 0,0 km/h (0 Bft) O-NO 67 0 min 0 UV-I 0 W/m 3,2 km/h (1 Bft)
30.04.2007 06:10 5,1 C 63 % 1018,5 hPa 0,0 mm 0,0 km/h (0 Bft) O-NO 67 0 min 0 UV-I 9 W/m 1,6 km/h (1 Bft)
30.04.2007 06:20 5,0 C 63 % 1018,6 hPa 0,0 mm 0,0 km/h (0 Bft) O-NO 67 0 min 0 UV-I 14 W/m 1,6 km/h (1 Bft)
30.04.2007 06:30 4,9 C 64 % 1018,7 hPa 0,0 mm 0,0 km/h (0 Bft) O-NO 67 0 min 0 UV-I 18 W/m 1,6 km/h (1 Bft)
30.04.2007 06:40 5,1 C 63 % 1018,8 hPa 0,0 mm 0,0 km/h (0 Bft) O-NO 67 0 min 0 UV-I 21 W/m 3,2 km/h (1 Bft)
30.04.2007 06:50 5,3 C 62 % 1018,8 hPa 0,0 mm 0,0 km/h (0 Bft) O-NO 67 0 min 0 UV-I 37 W/m 1,6 km/h (1 Bft)
30.04.2007 07:00 5,6 C 61 % 1018,9 hPa 0,0 mm 0,0 km/h (0 Bft) O 90 0 min 0 UV-I 46 W/m 4,8 km/h (1 Bft)
30.04.2007 07:10 5,9 C 60 % 1018,9 hPa 0,0 mm 0,0 km/h (0 Bft) O 90 0 min 0 UV-I 62 W/m 3,2 km/h (1 Bft)
30.04.2007 07:20 6,2 C 60 % 1018,9 hPa 0,0 mm 0,0 km/h (0 Bft) O 90 10 min 0 UV-I 111 W/m 3,2 km/h (1 Bft)
30.04.2007 07:30 6,6 C 59 % 1019,0 hPa 0,0 mm 0,0 km/h (0 Bft) O 90 10 min 0 UV-I 167 W/m 3,2 km/h (1 Bft)
30.04.2007 07:40 7,2 C 56 % 1018,9 hPa 0,0 mm 1,6 km/h (1 Bft) O 90 10 min 0 UV-I 190 W/m 6,4 km/h (2 Bft)
30.04.2007 07:50 7,8 C 55 % 1018,9 hPa 0,0 mm 1,6 km/h (1 Bft) O-NO 67 10 min 1 UV-I 218 W/m 4,8 km/h (1 Bft)
30.04.2007 08:00 8,2 C 54 % 1018,9 hPa 0,0 mm 3,2 km/h (1 Bft) O 90 10 min 1 UV-I 246 W/m 8,0 km/h (2 Bft)
30.04.2007 08:10 8,6 C 52 % 1019,0 hPa 0,0 mm 3,2 km/h (1 Bft) O-SO 112 10 min 1 UV-I 271 W/m 8,0 km/h (2 Bft)
30.04.2007 08:20 9,0 C 52 % 1019,0 hPa 0,0 mm 3,2 km/h (1 Bft) O 90 10 min 1 UV-I 299 W/m 9,7 km/h (2 Bft)
30.04.2007 08:30 9,3 C 51 % 1019,0 hPa 0,0 mm 1,6 km/h (1 Bft) O-NO 67 10 min 1 UV-I 329 W/m 6,4 km/h (2 Bft)
30.04.2007 08:40 9,8 C 50 % 1019,0 hPa 0,0 mm 1,6 km/h (1 Bft) O 90 10 min 1 UV-I 355 W/m 9,7 km/h (2 Bft)
30.04.2007 08:50 10,2 C 48 % 1018,9 hPa 0,0 mm 3,2 km/h (1 Bft) O 90 10 min 1 UV-I 378 W/m 9,7 km/h (2 Bft)
30.04.2007 09:00 10,5 C 47 % 1019,0 hPa 0,0 mm 3,2 km/h (1 Bft) O-SO 112 10 min 1 UV-I 411 W/m 11,3 km/h (2 Bft)
30.04.2007 09:10 10,8 C 48 % 1019,1 hPa 0,0 mm 4,8 km/h (1 Bft) O 90 10 min 2 UV-I 434 W/m 9,7 km/h (2 Bft)
30.04.2007 09:20 11,1 C 46 % 1019,1 hPa 0,0 mm 4,8 km/h (1 Bft) O 90 10 min 2 UV-I 455 W/m 14,5 km/h (3 Bft)
30.04.2007 09:30 11,3 C 46 % 1019,0 hPa 0,0 mm 4,8 km/h (1 Bft) O-SO 112 10 min 2 UV-I 476 W/m 14,5 km/h (3 Bft)
30.04.2007 09:40 11,6 C 46 % 1018,9 hPa 0,0 mm 4,8 km/h (1 Bft) O 90 10 min 2 UV-I 512 W/m 16,1 km/h (3 Bft)
30.04.2007 09:50 11,8 C 46 % 1019,0 hPa 0,0 mm 4,8 km/h (1 Bft) O 90 10 min 2 UV-I 538 W/m 12,9 km/h (3 Bft)
30.04.2007 10:00 12,2 C 46 % 1019,0 hPa 0,0 mm 4,8 km/h (1 Bft) O 90 10 min 2 UV-I 557 W/m 9,7 km/h (2 Bft)
30.04.2007 10:10 12,4 C 44 % 1018,9 hPa 0,0 mm 3,2 km/h (1 Bft) O 90 10 min 3 UV-I 584 W/m 9,7 km/h (2 Bft)
30.04.2007 10:20 12,7 C 43 % 1018,9 hPa 0,0 mm 4,8 km/h (1 Bft) O 90 10 min 3 UV-I 606 W/m 11,3 km/h (2 Bft)
30.04.2007 10:30 13,1 C 42 % 1018,8 hPa 0,0 mm 3,2 km/h (1 Bft) O 90 10 min 3 UV-I 626 W/m 9,7 km/h (2 Bft)
30.04.2007 10:40 13,5 C 40 % 1018,8 hPa 0,0 mm 4,8 km/h (1 Bft) O-SO 112 10 min 3 UV-I 647 W/m 14,5 km/h (3 Bft)
30.04.2007 10:50 13,6 C 39 % 1018,6 hPa 0,0 mm 3,2 km/h (1 Bft) O 90 10 min 3 UV-I 670 W/m 9,7 km/h (2 Bft)
30.04.2007 11:00 14,1 C 38 % 1018,6 hPa 0,0 mm 4,8 km/h (1 Bft) O-SO 112 10 min 4 UV-I 691 W/m 14,5 km/h (3 Bft)
30.04.2007 11:10 14,4 C 40 % 1018,5 hPa 0,0 mm 4,8 km/h (1 Bft) O 90 10 min 4 UV-I 705 W/m 19,3 km/h (3 Bft)
30.04.2007 11:20 14,4 C 38 % 1018,4 hPa 0,0 mm 3,2 km/h (1 Bft) O-SO 112 10 min 4 UV-I 721 W/m 9,7 km/h (2 Bft)
30.04.2007 11:30 14,7 C 35 % 1018,3 hPa 0,0 mm 3,2 km/h (1 Bft) O-SO 112 10 min 4 UV-I 738 W/m 14,5 km/h (3 Bft)
30.04.2007 11:40 15,0 C 35 % 1018,1 hPa 0,0 mm 3,2 km/h (1 Bft) S-SO 157 10 min 4 UV-I 749 W/m 11,3 km/h (2 Bft)
30.04.2007 11:50 15,2 C 35 % 1018,1 hPa 0,0 mm 4,8 km/h (1 Bft) O-SO 112 10 min 5 UV-I 765 W/m 16,1 km/h (3 Bft)
30.04.2007 12:00 15,7 C 36 % 1018,0 hPa 0,0 mm 1,1 km/h (1 Bft) O-SO 116 10 min 5 UV-I 772 W/m 3,2 km/h (1 Bft)
30.04.2007 12:10 16,2 C 33 % 1017,9 hPa 0,0 mm 4,8 km/h (1 Bft) O-SO 112 10 min 5 UV-I 789 W/m 14,5 km/h (3 Bft)
30.04.2007 12:20 16,3 C 32 % 1017,9 hPa 0,0 mm 4,8 km/h (1 Bft) O-SO 112 10 min 5 UV-I 800 W/m 16,1 km/h (3 Bft)
30.04.2007 12:30 16,2 C 32 % 1017,9 hPa 0,0 mm 4,8 km/h (1 Bft) O 90 10 min 5 UV-I 805 W/m 14,5 km/h (3 Bft)
30.04.2007 12:40 16,6 C 31 % 1017,7 hPa 0,0 mm 3,2 km/h (1 Bft) O 90 10 min 5 UV-I 814 W/m 9,7 km/h (2 Bft)
30.04.2007 12:50 16,8 C 28 % 1017,8 hPa 0,0 mm 4,8 km/h (1 Bft) O 90 10 min 5 UV-I 821 W/m 17,7 km/h (3 Bft)
30.04.2007 13:00 16,9 C 28 % 1017,7 hPa 0,0 mm 3,2 km/h (1 Bft) O 90 10 min 5 UV-I 824 W/m 9,7 km/h (2 Bft)
30.04.2007 13:10 17,3 C 28 % 1017,6 hPa 0,0 mm 4,8 km/h (1 Bft) O 90 10 min 5 UV-I 831 W/m 11,3 km/h (2 Bft)
30.04.2007 13:20 17,6 C 27 % 1017,5 hPa 0,0 mm 4,8 km/h (1 Bft) O 90 10 min 5 UV-I 831 W/m 11,3 km/h (2 Bft)
30.04.2007 13:30 17,2 C 27 % 1017,6 hPa 0,0 mm 6,4 km/h (2 Bft) O-SO 112 10 min 5 UV-I 833 W/m 17,7 km/h (3 Bft)
30.04.2007 13:40 17,5 C 26 % 1017,4 hPa 0,0 mm 4,8 km/h (1 Bft) O-SO 112 10 min 5 UV-I 830 W/m 16,1 km/h (3 Bft)
30.04.2007 13:50 17,8 C 28 % 1017,4 hPa 0,0 mm 4,8 km/h (1 Bft) O 90 10 min 5 UV-I 828 W/m 11,3 km/h (2 Bft)
30.04.2007 14:00 18,3 C 28 % 1017,4 hPa 0,0 mm 4,8 km/h (1 Bft) O-SO 112 10 min 5 UV-I 828 W/m 16,1 km/h (3 Bft)
30.04.2007 14:10 18,4 C 28 % 1017,3 hPa 0,0 mm 4,8 km/h (1 Bft) O 90 10 min 5 UV-I 819 W/m 11,3 km/h (2 Bft)
30.04.2007 14:20 18,4 C 28 % 1017,2 hPa 0,0 mm 4,8 km/h (1 Bft) O 90 10 min 5 UV-I 814 W/m 19,3 km/h (3 Bft)
30.04.2007 14:30 18,4 C 29 % 1017,1 hPa 0,0 mm 4,8 km/h (1 Bft) O-SO 112 10 min 5 UV-I 810 W/m 11,3 km/h (2 Bft)
30.04.2007 14:40 18,3 C 27 % 1017,1 hPa 0,0 mm 4,8 km/h (1 Bft) O-SO 112 10 min 5 UV-I 803 W/m 14,5 km/h (3 Bft)
30.04.2007 14:50 18,5 C 27 % 1017,0 hPa 0,0 mm 4,8 km/h (1 Bft) O-SO 112 10 min 5 UV-I 791 W/m 11,3 km/h (2 Bft)
30.04.2007 15:00 18,7 C 27 % 1016,9 hPa 0,0 mm 3,2 km/h (1 Bft) O 90 10 min 4 UV-I 779 W/m 8,0 km/h (2 Bft)
30.04.2007 15:10 18,7 C 28 % 1016,9 hPa 0,0 mm 4,8 km/h (1 Bft) O-SO 112 10 min 4 UV-I 768 W/m 8,0 km/h (2 Bft)
30.04.2007 15:20 18,7 C 27 % 1016,9 hPa 0,0 mm 4,8 km/h (1 Bft) O 90 10 min 4 UV-I 752 W/m 16,1 km/h (3 Bft)
30.04.2007 15:30 18,7 C 27 % 1016,7 hPa 0,0 mm 4,8 km/h (1 Bft) O 90 10 min 4 UV-I 738 W/m 14,5 km/h (3 Bft)
30.04.2007 15:40 19,1 C 28 % 1016,7 hPa 0,0 mm 3,2 km/h (1 Bft) O 90 10 min 4 UV-I 724 W/m 9,7 km/h (2 Bft)
30.04.2007 15:50 19,2 C 26 % 1016,6 hPa 0,0 mm 4,8 km/h (1 Bft) O 90 10 min 4 UV-I 707 W/m 11,3 km/h (2 Bft)
30.04.2007 16:00 19,1 C 26 % 1016,5 hPa 0,0 mm 6,4 km/h (2 Bft) O 90 10 min 3 UV-I 693 W/m 14,5 km/h (3 Bft)
30.04.2007 16:10 19,3 C 26 % 1016,4 hPa 0,0 mm 3,2 km/h (1 Bft) O 90 10 min 3 UV-I 673 W/m 11,3 km/h (2 Bft)
30.04.2007 16:20 19,5 C 27 % 1016,3 hPa 0,0 mm 4,8 km/h (1 Bft) O 90 10 min 3 UV-I 654 W/m 9,7 km/h (2 Bft)
30.04.2007 16:30 19,6 C 27 % 1016,2 hPa 0,0 mm 3,2 km/h (1 Bft) O 90 10 min 3 UV-I 633 W/m 14,5 km/h (3 Bft)
30.04.2007 16:40 19,6 C 28 % 1016,1 hPa 0,0 mm 4,8 km/h (1 Bft) O 90 10 min 3 UV-I 612 W/m 11,3 km/h (2 Bft)
30.04.2007 16:50 19,5 C 29 % 1016,1 hPa 0,0 mm 4,8 km/h (1 Bft) O 90 10 min 2 UV-I 585 W/m 14,5 km/h (3 Bft)
30.04.2007 17:00 19,4 C 29 % 1016,0 hPa 0,0 mm 4,8 km/h (1 Bft) O 90 10 min 2 UV-I 561 W/m 11,3 km/h (2 Bft)
30.04.2007 17:10 19,3 C 30 % 1016,0 hPa 0,0 mm 3,2 km/h (1 Bft) O-NO 67 10 min 2 UV-I 540 W/m 9,7 km/h (2 Bft)
30.04.2007 17:20 19,6 C 30 % 1015,8 hPa 0,0 mm 3,2 km/h (1 Bft) O 90 10 min 2 UV-I 513 W/m 9,7 km/h (2 Bft)
30.04.2007 17:30 19,3 C 31 % 1015,8 hPa 0,0 mm 4,8 km/h (1 Bft) O 90 10 min 2 UV-I 490 W/m 19,3 km/h (3 Bft)
30.04.2007 17:40 19,2 C 30 % 1015,8 hPa 0,0 mm 4,8 km/h (1 Bft) O 90 10 min 2 UV-I 464 W/m 11,3 km/h (2 Bft)
30.04.2007 17:50 19,1 C 30 % 1015,8 hPa 0,0 mm 6,4 km/h (2 Bft) O 90 10 min 1 UV-I 438 W/m 16,1 km/h (3 Bft)
30.04.2007 18:00 18,9 C 30 % 1015,7 hPa 0,0 mm 4,8 km/h (1 Bft) O 90 10 min 1 UV-I 411 W/m 11,3 km/h (2 Bft)
30.04.2007 18:10 18,8 C 32 % 1015,7 hPa 0,0 mm 6,4 km/h (2 Bft) O 90 10 min 1 UV-I 385 W/m 14,5 km/h (3 Bft)
30.04.2007 18:20 18,7 C 31 % 1015,8 hPa 0,0 mm 3,2 km/h (1 Bft) O-NO 67 10 min 1 UV-I 355 W/m 11,3 km/h (2 Bft)
30.04.2007 18:30 18,7 C 32 % 1015,7 hPa 0,0 mm 4,8 km/h (1 Bft) O 90 10 min 1 UV-I 327 W/m 14,5 km/h (3 Bft)
30.04.2007 18:40 18,6 C 32 % 1015,7 hPa 0,0 mm 4,8 km/h (1 Bft) O 90 10 min 1 UV-I 301 W/m 11,3 km/h (2 Bft)
30.04.2007 18:50 18,3 C 33 % 1015,7 hPa 0,0 mm 3,2 km/h (1 Bft) O 90 10 min 1 UV-I 272 W/m 16,1 km/h (3 Bft)
30.04.2007 19:00 18,1 C 32 % 1015,8 hPa 0,0 mm 4,8 km/h (1 Bft) O 90 10 min 1 UV-I 243 W/m 16,1 km/h (3 Bft)
30.04.2007 19:10 17,8 C 34 % 1015,7 hPa 0,0 mm 3,2 km/h (1 Bft) O-NO 67 10 min 0 UV-I 218 W/m 9,7 km/h (2 Bft)
30.04.2007 19:20 17,6 C 33 % 1015,8 hPa 0,0 mm 4,8 km/h (1 Bft) O 90 0 min 0 UV-I 53 W/m 17,7 km/h (3 Bft)
30.04.2007 19:30 17,3 C 34 % 1015,8 hPa 0,0 mm 3,2 km/h (1 Bft) O 90 0 min 0 UV-I 33 W/m 8,0 km/h (2 Bft)
30.04.2007 19:40 17,1 C 34 % 1015,8 hPa 0,0 mm 3,2 km/h (1 Bft) NO 45 0 min 0 UV-I 32 W/m 9,7 km/h (2 Bft)
30.04.2007 19:50 16,8 C 35 % 1015,8 hPa 0,0 mm 3,2 km/h (1 Bft) O-NO 67 0 min 0 UV-I 28 W/m 14,5 km/h (3 Bft)
30.04.2007 20:00 16,6 C 36 % 1015,8 hPa 0,0 mm 3,2 km/h (1 Bft) O 90 0 min 0 UV-I 25 W/m 12,9 km/h (3 Bft)
30.04.2007 20:10 16,4 C 38 % 1015,9 hPa 0,0 mm 3,2 km/h (1 Bft) O 90 0 min 0 UV-I 21 W/m 11,3 km/h (2 Bft)
30.04.2007 20:20 16,1 C 39 % 1015,8 hPa 0,0 mm 1,6 km/h (1 Bft) O 90 0 min 0 UV-I 18 W/m 6,4 km/h (2 Bft)
30.04.2007 20:30 15,8 C 39 % 1015,9 hPa 0,0 mm 3,2 km/h (1 Bft) O-NO 67 0 min 0 UV-I 14 W/m 8,0 km/h (2 Bft)
30.04.2007 20:40 15,6 C 39 % 1016,0 hPa 0,0 mm 3,2 km/h (1 Bft) O 90 0 min 0 UV-I 9 W/m 6,4 km/h (2 Bft)
30.04.2007 20:50 15,3 C 41 % 1016,1 hPa 0,0 mm 3,2 km/h (1 Bft) O-NO 67 0 min 0 UV-I 0 W/m 8,0 km/h (2 Bft)
30.04.2007 21:00 15,0 C 41 % 1016,1 hPa 0,0 mm 1,6 km/h (1 Bft) NO 45 0 min 0 UV-I 0 W/m 6,4 km/h (2 Bft)
30.04.2007 21:10 14,8 C 42 % 1016,2 hPa 0,0 mm 1,6 km/h (1 Bft) O 90 0 min 0 UV-I 0 W/m 4,8 km/h (1 Bft)
30.04.2007 21:20 14,4 C 43 % 1016,4 hPa 0,0 mm 1,6 km/h (1 Bft) O-NO 67 0 min 0 UV-I 0 W/m 3,2 km/h (1 Bft)
30.04.2007 21:30 14,2 C 44 % 1016,5 hPa 0,0 mm 0,0 km/h (0 Bft) O-NO 67 0 min 0 UV-I 0 W/m 3,2 km/h (1 Bft)
30.04.2007 21:40 13,8 C 45 % 1016,4 hPa 0,0 mm 0,0 km/h (0 Bft) O 90 0 min 0 UV-I 0 W/m 3,2 km/h (1 Bft)
30.04.2007 21:50 13,3 C 46 % 1016,5 hPa 0,0 mm 0,0 km/h (0 Bft) N 0 0 min 0 UV-I 0 W/m 0,0 km/h (0 Bft)
30.04.2007 22:00 12,9 C 47 % 1016,5 hPa 0,0 mm 0,0 km/h (0 Bft) O 90 0 min 0 UV-I 0 W/m 1,6 km/h (1 Bft)
30.04.2007 22:10 12,7 C 48 % 1016,5 hPa 0,0 mm 0,0 km/h (0 Bft) O 90 0 min 0 UV-I 0 W/m 1,6 km/h (1 Bft)
30.04.2007 22:20 12,6 C 49 % 1016,5 hPa 0,0 mm 0,0 km/h (0 Bft) N 0 0 min 0 UV-I 0 W/m 0,0 km/h (0 Bft)
30.04.2007 22:30 12,4 C 50 % 1016,5 hPa 0,0 mm 0,0 km/h (0 Bft) O 90 0 min 0 UV-I 0 W/m 1,6 km/h (1 Bft)
30.04.2007 22:40 12,1 C 50 % 1016,6 hPa 0,0 mm 0,0 km/h (0 Bft) N 0 0 min 0 UV-I 0 W/m 0,0 km/h (0 Bft)
30.04.2007 22:50 11,9 C 51 % 1016,7 hPa 0,0 mm 0,0 km/h (0 Bft) N 0 0 min 0 UV-I 0 W/m 0,0 km/h (0 Bft)
30.04.2007 23:00 11,7 C 52 % 1016,7 hPa 0,0 mm 0,0 km/h (0 Bft) N 0 0 min 0 UV-I 0 W/m 0,0 km/h (0 Bft)
30.04.2007 23:10 11,5 C 53 % 1016,6 hPa 0,0 mm 0,0 km/h (0 Bft) N 0 0 min 0 UV-I 0 W/m 0,0 km/h (0 Bft)
30.04.2007 23:20 11,4 C 54 % 1016,6 hPa 0,0 mm 0,0 km/h (0 Bft) N 0 0 min 0 UV-I 0 W/m 0,0 km/h (0 Bft)
30.04.2007 23:30 10,9 C 56 % 1016,7 hPa 0,0 mm 0,0 km/h (0 Bft) N 0 0 min 0 UV-I 0 W/m 0,0 km/h (0 Bft)
30.04.2007 23:40 10,5 C 57 % 1016,9 hPa 0,0 mm 0,0 km/h (0 Bft) N 0 0 min 0 UV-I 0 W/m 0,0 km/h (0 Bft)
30.04.2007 23:50 10,3 C 58 % 1016,9 hPa 0,0 mm 0,0 km/h (0 Bft) N 0 0 min 0 UV-I 0 W/m 0,0 km/h (0 Bft)
_ Min-Zeit 06:20 13:40 18:00 - 00:00 - - - - - 05:20
Minimum _ 4,9 C 26 % 1015,7 hPa - 0,0 km/h (0 Bft) - - - - - 0,0 km/h (0 Bft)
_ Max-Zeit 16:30 06:30 09:10 00:00 13:30 - - 07:20 11:50 13:30 11:10
Maximum _ 19,8 C 64 % 1019,1 hPa 0,0 mm 6,4 km/h
O-SO (2 Bft)
- - 10 min 5 UV-I 833 W/m 19,3 km/h
N (3 Bft)
Durchschnitt _ 12,7 C 44 % 1017,6 hPa #0,0 mm 2,4 km/h (1 Bft) O - #12:00 h 3 UV-I 481 W/m 8,0 km/h (2 Bft)